KVDI/VDI METAR and TAF weather

Enter ICAO airport designator
Station Type Date Time Source
KVDI METAR 2020/08/15 16:35 UTC NOAA

KVDI 151635Z AUTO 21005KT 10SM BKN030 BKN037 BKN044 31/21 A2992 RMK AO2 LTG DSNT SE


Station Type Date Time Source
KVDI Decoded METAR 2020/08/15 16:35 UTC NOAA

Vidalia, Vidalia Municipal Airport, GA, United States (KVDI) 32-11-33N 082-22-19W
Aug 15, 2020 - 12:35 PM EDT / 2020.08.15 1635 UTC
Wind: from the SSW (210 degrees) at 6 MPH (5 KT):0
Visibility: 10 mile(s):0
Sky conditions: mostly cloudy
Weather: Lightning observed
Temperature: 87 F (31 C)
Dew Point: 69 F (21 C)
Relative Humidity: 55%
Pressure (altimeter): 29.92 in. Hg (1013 hPa)
ob: KVDI 151635Z AUTO 21005KT 10SM BKN030 BKN037 BKN044 31/21 A2992 RMK AO2 LTG DSNT SE
cycle: 16

Station Type Date Time Source
KVDI TAF UTC NOAA

Error!

Example: see airport list